createdAt,value
2023-02-01T05:40:12.093Z,11.60
2023-02-01T05:42:39.373Z,15.10
2023-02-01T05:45:07.968Z,12.80
2023-02-01T05:47:35.282Z,14.80
2023-02-01T05:50:02.966Z,13.30
2023-02-01T05:52:29.753Z,14.70
2023-02-01T05:54:56.861Z,15.10
2023-02-01T05:57:26.464Z,14.80
2023-02-01T05:59:53.801Z,14.00
2023-02-01T06:02:22.100Z,15.10
2023-02-01T06:04:49.157Z,16.10
2023-02-01T06:07:15.905Z,14.10
2023-02-01T06:09:42.818Z,12.60
2023-02-01T06:12:12.749Z,14.40
2023-02-01T06:14:39.795Z,12.10
2023-02-01T06:17:08.764Z,13.30
2023-02-01T06:19:35.536Z,14.30
2023-02-01T06:22:02.501Z,14.90
2023-02-01T06:24:29.314Z,15.80
2023-02-01T06:26:56.964Z,17.60
2023-02-01T06:29:24.301Z,15.00
2023-02-01T06:31:51.903Z,14.10
2023-02-01T06:34:22.096Z,15.10
2023-02-01T06:36:50.631Z,12.80
2023-02-01T06:39:17.325Z,15.10
2023-02-01T06:41:50.553Z,15.00
2023-02-01T06:44:18.901Z,18.90
2023-02-01T06:46:50.616Z,13.00
2023-02-01T06:49:18.714Z,13.60
2023-02-01T06:51:46.484Z,14.10
2023-02-01T06:54:14.610Z,14.20
2023-02-01T06:56:42.612Z,14.50
2023-02-01T06:59:10.654Z,18.80
2023-02-01T07:01:44.737Z,16.90
2023-02-01T07:04:14.651Z,14.30
2023-02-01T07:06:44.472Z,19.20
2023-02-01T07:09:15.541Z,14.10
2023-02-01T07:11:43.689Z,11.80
2023-02-01T07:14:13.207Z,14.50
2023-02-01T07:16:40.418Z,13.00
2023-02-01T07:19:08.035Z,15.80
2023-02-01T07:21:40.199Z,10.90
2023-02-01T07:24:07.786Z,17.50
2023-02-01T07:26:37.856Z,16.50
2023-02-01T07:29:06.186Z,14.20
2023-02-01T07:31:33.431Z,14.60
2023-02-01T07:34:01.301Z,16.70
2023-02-01T07:36:28.216Z,13.80
2023-02-01T07:38:56.884Z,14.50
2023-02-01T07:41:23.998Z,14.90
2023-02-01T07:43:53.343Z,15.30
2023-02-01T07:46:22.320Z,14.20
2023-02-01T07:52:36.845Z,12.80
2023-02-01T07:55:05.939Z,14.90
2023-02-01T07:57:33.695Z,15.30
2023-02-01T08:00:21.789Z,12.80
2023-02-01T08:02:49.486Z,15.20
2023-02-01T08:05:20.214Z,14.40
2023-02-01T08:07:53.170Z,17.10
2023-02-01T08:10:39.219Z,14.90
2023-02-01T08:13:10.494Z,18.40
2023-02-01T08:15:37.665Z,16.70
2023-02-01T08:18:34.818Z,12.80
2023-02-01T08:21:12.221Z,12.20
2023-02-01T08:30:16.648Z,12.70
2023-02-01T08:33:15.400Z,12.60
2023-02-01T08:35:44.978Z,14.70
2023-02-01T08:38:17.320Z,15.10
2023-02-01T08:40:46.363Z,12.30
2023-02-01T08:43:16.615Z,10.60
2023-02-01T08:45:44.348Z,11.80
2023-02-01T08:48:12.796Z,11.30
2023-02-01T08:50:43.686Z,14.20
2023-02-01T08:53:14.488Z,11.00
2023-02-01T08:55:42.143Z,10.60
2023-02-01T08:58:08.959Z,9.70
2023-02-01T09:00:36.879Z,10.70
2023-02-01T09:03:09.133Z,8.90
2023-02-01T09:05:48.712Z,8.40
2023-02-01T09:08:20.522Z,10.70
2023-02-01T09:10:50.250Z,8.30
2023-02-01T09:13:48.239Z,9.40
2023-02-01T09:16:18.501Z,12.10
2023-02-01T09:18:56.589Z,11.50
2023-02-01T09:21:34.861Z,10.50
2023-02-01T09:24:11.678Z,11.40
2023-02-01T09:26:49.255Z,13.00
2023-02-01T09:29:16.388Z,11.50
2023-02-01T09:32:02.814Z,9.80
2023-02-01T09:34:34.397Z,10.70
2023-02-01T09:37:05.570Z,9.10
2023-02-01T09:39:33.121Z,9.00
2023-02-01T09:42:24.899Z,7.80
2023-02-01T09:45:07.536Z,10.20
2023-02-01T09:47:35.971Z,12.80
2023-02-01T09:50:19.938Z,9.00
2023-02-01T09:52:58.448Z,10.20
2023-02-01T09:55:46.759Z,10.60
2023-02-01T09:58:20.601Z,7.10
2023-02-01T10:01:02.633Z,6.80
2023-02-01T10:03:35.159Z,8.50
2023-02-01T10:06:58.524Z,10.10
2023-02-01T10:12:33.891Z,12.90
2023-02-01T10:15:38.480Z,9.10
2023-02-01T10:18:33.511Z,7.70
2023-02-01T10:21:14.234Z,9.80
2023-02-01T10:29:54.857Z,7.30
2023-02-01T10:32:42.189Z,8.90
2023-02-01T10:35:23.077Z,11.30
2023-02-01T10:37:59.858Z,10.60
2023-02-01T10:40:36.167Z,9.40
2023-02-01T10:47:30.264Z,9.10
2023-02-01T10:50:18.443Z,7.80
2023-02-01T10:52:54.542Z,8.20
2023-02-01T10:55:41.785Z,7.60
2023-02-01T10:58:27.354Z,8.20
2023-02-01T11:01:00.810Z,7.90
2023-02-01T11:03:38.941Z,8.90
2023-02-01T11:06:31.327Z,10.70
2023-02-01T11:09:06.097Z,11.40
2023-02-01T11:11:49.392Z,8.20
2023-02-01T11:14:19.833Z,14.70
2023-02-01T11:19:20.871Z,6.80
2023-02-01T11:21:58.346Z,12.10
2023-02-01T11:24:30.551Z,11.90
2023-02-01T11:27:06.887Z,11.90
2023-02-01T11:29:40.282Z,11.00
2023-02-01T11:32:10.564Z,10.70
2023-02-01T11:34:40.130Z,9.50
2023-02-01T11:37:40.441Z,10.70
2023-02-01T11:40:23.989Z,10.30
2023-02-01T11:43:27.412Z,10.50
2023-02-01T11:48:37.130Z,10.20
2023-02-01T11:51:29.438Z,10.60
2023-02-01T11:54:28.471Z,12.00
2023-02-01T11:57:13.369Z,11.10
2023-02-01T12:03:42.931Z,9.60
2023-02-01T12:07:06.077Z,10.70
2023-02-01T12:10:07.614Z,10.20
2023-02-01T12:13:33.716Z,10.40
